PWSweather.com
Personal Weather Stations
Station Observations
PENICUIKWS
PenicuikGB

PenicuikGB

Lat: 55.830932, Lon: -3.224533000000065

Elevation: 166

Station Type: Fine Offset

http://weather.penicuik.org

Latest ConditionsUpdated 12:45:00 PM GMT Monday, Jun 24, 2019
Currently Today's Max Today's Min Today's Average
Temperature 54.3°F12.4°C 54.9°F12.7°C 53.6°F12.0°C 54.3°F12.4°C
Dew Point 53.5°F11.9°C 54.0°F12.2°C 52.2°F11.2°C 53.5°F11.9°C
Winds 4.5 mph NNE7.2 kmh NNE 7.3 mph -11.7 kmh - - 4.6 mph 7.4 kmh
Wind Gusts 7.6 mph12.2 kmh 12.1 mph19.5 kmh - -
Humidity 97% 97% 95% 97%
Pressure 30.96 in1048.4 mb 31.07 in1052.2 mb 30.96 in1048.4 mb -
Precipitation - 0.45 in11.4 mm - -
Hour Temp Dew Point Humidity Winds Wind Gusts Pressure Precip Precip Rate Daily Precip Total
12:45 PM 54.3°F12.4°C 53.5°F11.9°C 97% 4.5 mph NNE7.2 kmh NNE 7.6 mph12.2 kmh 30.96 in1048.4 mb 0.00 in0.0 mm 0.00 in0.0 mm 0.45 in11.4 mm
12:30 PM 54.3°F12.4°C 53.5°F11.9°C 97% 5.0 mph N8.0 kmh N 8.3 mph13.4 kmh 30.99 in1049.4 mb 0.00 in0.0 mm 0.00 in0.0 mm 0.45 in11.4 mm
12:15 PM 54.5°F12.5°C 53.7°F12.1°C 97% Calm Calm -- 30.99 in1049.4 mb 0.00 in0.0 mm 0.00 in0.0 mm 0.45 in11.4 mm
12:00 PM 54.5°F12.5°C 53.7°F12.1°C 97% 1.8 mph NE2.9 kmh NE 5.4 mph8.7 kmh 30.99 in1049.4 mb 0.00 in0.0 mm 0.00 in0.0 mm 0.45 in11.4 mm
11:45 AM 54.3°F12.4°C 53.5°F11.9°C 97% 5.8 mph NNE9.3 kmh NNE 6.9 mph11.1 kmh 30.96 in1048.4 mb 0.02 in0.5 mm 0.00 in0.0 mm 0.45 in11.4 mm
11:30 AM 54.5°F12.5°C 53.7°F12.1°C 97% 6.1 mph NNE9.8 kmh NNE 9.8 mph15.8 kmh 30.97 in1048.8 mb 0.04 in1.0 mm 0.00 in0.0 mm 0.45 in11.4 mm
11:15 AM 54.3°F12.4°C 53.5°F11.9°C 97% 5.0 mph N8.0 kmh N 6.9 mph11.1 kmh 30.97 in1048.8 mb 0.05 in1.3 mm 0.00 in0.0 mm 0.45 in11.4 mm
11:00 AM 54.1°F12.3°C 53.3°F11.8°C 97% 6.8 mph NNE10.9 kmh NNE 11.4 mph18.3 kmh 30.97 in1048.8 mb 0.09 in2.3 mm 0.00 in0.0 mm 0.45 in11.4 mm
10:45 AM 54.1°F12.3°C 53.3°F11.8°C 97% 4.9 mph N7.9 kmh N 9.2 mph14.8 kmh 30.98 in1049.1 mb 0.11 in2.8 mm 0.08 in2.0 mm 0.43 in10.9 mm
10:30 AM 54.3°F12.4°C 53.5°F11.9°C 97% 5.0 mph N8.0 kmh N 9.8 mph15.8 kmh 30.97 in1048.8 mb 0.09 in2.3 mm 0.04 in1.0 mm 0.41 in10.4 mm
10:15 AM 54.3°F12.4°C 53.5°F11.9°C 97% 3.7 mph NNE6.0 kmh NNE 4.5 mph7.2 kmh 30.98 in1049.1 mb 0.08 in2.0 mm 0.16 in4.1 mm 0.40 in10.2 mm
10:00 AM 54.1°F12.3°C 53.3°F11.8°C 97% 4.1 mph N6.6 kmh N 6.9 mph11.1 kmh 30.99 in1049.4 mb 0.04 in1.0 mm 0.05 in1.3 mm 0.35 in8.9 mm
09:45 AM 54.1°F12.3°C 53.3°F11.8°C 97% 3.9 mph NNE6.3 kmh NNE 6.0 mph9.7 kmh 31.00 in1049.8 mb 0.00 in0.0 mm 0.00 in0.0 mm 0.32 in8.1 mm
09:30 AM 54.1°F12.3°C 53.3°F11.8°C 97% 4.1 mph N6.6 kmh N 6.9 mph11.1 kmh 30.98 in1049.1 mb 0.00 in0.0 mm 0.00 in0.0 mm 0.32 in8.1 mm
09:15 AM 54.0°F12.2°C 53.1°F11.7°C 97% 7.0 mph NE11.3 kmh NE 12.1 mph19.5 kmh 30.97 in1048.8 mb 0.00 in0.0 mm 0.00 in0.0 mm 0.32 in8.1 mm
09:00 AM 54.1°F12.3°C 53.3°F11.8°C 97% 4.6 mph N7.4 kmh N 8.3 mph13.4 kmh 30.98 in1049.1 mb 0.00 in0.0 mm 0.00 in0.0 mm 0.32 in8.1 mm
08:45 AM 54.1°F12.3°C 53.3°F11.8°C 97% 4.7 mph N7.6 kmh N 9.2 mph14.8 kmh 30.98 in1049.1 mb 0.00 in0.0 mm 0.00 in0.0 mm 0.32 in8.1 mm
08:30 AM 53.8°F12.1°C 53.0°F11.7°C 97% 4.8 mph NNE7.7 kmh NNE 7.6 mph12.2 kmh 30.98 in1049.1 mb 0.01 in0.3 mm 0.00 in0.0 mm 0.32 in8.1 mm
08:15 AM 53.8°F12.1°C 53.0°F11.7°C 97% 5.8 mph NNE9.3 kmh NNE 7.6 mph12.2 kmh 30.98 in1049.1 mb 0.01 in0.3 mm 0.00 in0.0 mm 0.32 in8.1 mm
08:00 AM 53.8°F12.1°C 53.0°F11.7°C 97% 5.4 mph N8.7 kmh N 9.2 mph14.8 kmh 30.97 in1048.8 mb 0.01 in0.3 mm 0.01 in0.3 mm 0.32 in8.1 mm
07:45 AM 54.1°F12.3°C 53.3°F11.8°C 97% 4.9 mph NNE7.9 kmh NNE 7.6 mph12.2 kmh 30.97 in1048.8 mb 0.00 in0.0 mm 0.00 in0.0 mm 0.31 in7.9 mm
07:30 AM 54.1°F12.3°C 53.3°F11.8°C 97% 5.4 mph N8.7 kmh N 7.6 mph12.2 kmh 30.97 in1048.8 mb 0.00 in0.0 mm 0.00 in0.0 mm 0.31 in7.9 mm
07:15 AM 54.3°F12.4°C 53.5°F11.9°C 97% 6.1 mph N9.8 kmh N 9.2 mph14.8 kmh 30.98 in1049.1 mb 0.00 in0.0 mm 0.00 in0.0 mm 0.31 in7.9 mm
07:00 AM 54.5°F12.5°C 53.7°F12.1°C 97% 6.2 mph N10.0 kmh N 9.8 mph15.8 kmh 30.97 in1048.8 mb 0.00 in0.0 mm 0.00 in0.0 mm 0.31 in7.9 mm
06:45 AM 54.5°F12.5°C 53.7°F12.1°C 97% 5.0 mph N8.0 kmh N 9.2 mph14.8 kmh 30.98 in1049.1 mb 0.00 in0.0 mm 0.00 in0.0 mm 0.31 in7.9 mm
06:30 AM 54.7°F12.6°C 53.9°F12.2°C 97% 4.2 mph N6.8 kmh N 6.9 mph11.1 kmh 30.97 in1048.8 mb 0.00 in0.0 mm 0.00 in0.0 mm 0.31 in7.9 mm
06:15 AM 54.7°F12.6°C 53.9°F12.2°C 97% 6.3 mph N10.1 kmh N 9.8 mph15.8 kmh 30.97 in1048.8 mb 0.00 in0.0 mm 0.00 in0.0 mm 0.31 in7.9 mm
06:00 AM 54.7°F12.6°C 53.9°F12.2°C 97% 5.8 mph N9.3 kmh N 8.3 mph13.4 kmh 30.98 in1049.1 mb 0.00 in0.0 mm 0.00 in0.0 mm 0.31 in7.9 mm
05:45 AM 54.7°F12.6°C 53.9°F12.2°C 97% 6.0 mph NNE9.7 kmh NNE 7.6 mph12.2 kmh 30.98 in1049.1 mb 0.00 in0.0 mm 0.00 in0.0 mm 0.31 in7.9 mm
05:30 AM 54.9°F12.7°C 54.0°F12.2°C 97% 4.5 mph N7.2 kmh N 7.6 mph12.2 kmh 30.98 in1049.1 mb 0.00 in0.0 mm 0.00 in0.0 mm 0.31 in7.9 mm
05:15 AM 54.7°F12.6°C 53.9°F12.2°C 97% 4.8 mph NNW7.7 kmh NNW 6.0 mph9.7 kmh 30.98 in1049.1 mb 0.00 in0.0 mm 0.00 in0.0 mm 0.31 in7.9 mm
05:00 AM 54.7°F12.6°C 53.9°F12.2°C 97% 4.8 mph N7.7 kmh N 6.9 mph11.1 kmh 30.99 in1049.4 mb 0.00 in0.0 mm 0.00 in0.0 mm 0.31 in7.9 mm
04:45 AM 54.7°F12.6°C 53.9°F12.2°C 97% 4.2 mph N6.8 kmh N 5.4 mph8.7 kmh 30.98 in1049.1 mb 0.01 in0.3 mm 0.00 in0.0 mm 0.31 in7.9 mm
04:30 AM 54.5°F12.5°C 53.7°F12.1°C 97% 5.2 mph N8.4 kmh N 6.9 mph11.1 kmh 30.99 in1049.4 mb 0.06 in1.5 mm 0.00 in0.0 mm 0.31 in7.9 mm
04:15 AM 54.5°F12.5°C 53.7°F12.1°C 97% 7.3 mph N11.7 kmh N 9.8 mph15.8 kmh 30.98 in1049.1 mb 0.14 in3.6 mm 0.00 in0.0 mm 0.31 in7.9 mm
04:00 AM 54.5°F12.5°C 53.7°F12.1°C 97% 2.4 mph N3.9 kmh N 4.5 mph7.2 kmh 31.00 in1049.8 mb 0.20 in5.1 mm 0.00 in0.0 mm 0.31 in7.9 mm
03:45 AM 54.5°F12.5°C 53.7°F12.1°C 97% 4.2 mph N6.8 kmh N 7.6 mph12.2 kmh 31.00 in1049.8 mb 0.25 in6.4 mm 0.16 in4.1 mm 0.30 in7.6 mm
03:30 AM 54.5°F12.5°C 53.7°F12.1°C 97% 2.1 mph NNE3.4 kmh NNE 3.1 mph5.0 kmh 31.02 in1050.5 mb 0.21 in5.3 mm 0.28 in7.1 mm 0.25 in6.4 mm
03:15 AM 54.5°F12.5°C 53.7°F12.1°C 97% 1.0 mph NE1.6 kmh NE 3.1 mph5.0 kmh 31.02 in1050.5 mb 0.14 in3.6 mm 0.24 in6.1 mm 0.17 in4.3 mm
03:00 AM 54.5°F12.5°C 53.7°F12.1°C 97% 3.6 mph NE5.8 kmh NE 4.5 mph7.2 kmh 31.02 in1050.5 mb 0.08 in2.0 mm 0.04 in1.0 mm 0.09 in2.3 mm
02:45 AM 54.5°F12.5°C 53.7°F12.1°C 97% 4.1 mph N6.6 kmh N 6.0 mph9.7 kmh 31.02 in1050.5 mb 0.05 in1.3 mm 0.04 in1.0 mm 0.05 in1.3 mm
02:30 AM 54.5°F12.5°C 53.7°F12.1°C 97% 4.7 mph N7.6 kmh N 6.9 mph11.1 kmh 31.01 in1050.1 mb 0.04 in1.0 mm 0.08 in2.0 mm 0.04 in1.0 mm
02:15 AM 54.5°F12.5°C 53.7°F12.1°C 97% 4.5 mph N7.2 kmh N 7.6 mph12.2 kmh 31.02 in1050.5 mb 0.02 in0.5 mm 0.04 in1.0 mm 0.02 in0.5 mm
02:00 AM 54.5°F12.5°C 53.7°F12.1°C 97% 2.6 mph N4.2 kmh N 5.4 mph8.7 kmh 31.03 in1050.8 mb 0.01 in0.3 mm 0.01 in0.3 mm 0.01 in0.3 mm
01:45 AM 54.5°F12.5°C 53.7°F12.1°C 97% 4.4 mph N7.1 kmh N 6.0 mph9.7 kmh 31.03 in1050.8 mb 0.00 in0.0 mm 0.00 in0.0 mm 0.00 in0.0 mm
01:30 AM 54.3°F12.4°C 53.5°F11.9°C 97% 6.0 mph N9.7 kmh N 10.7 mph17.2 kmh 31.03 in1050.8 mb 0.00 in0.0 mm 0.00 in0.0 mm 0.00 in0.0 mm
01:15 AM 54.3°F12.4°C 53.5°F11.9°C 97% 5.4 mph N8.7 kmh N 7.6 mph12.2 kmh 31.04 in1051.1 mb 0.00 in0.0 mm 0.00 in0.0 mm 0.00 in0.0 mm
01:00 AM 54.3°F12.4°C 53.5°F11.9°C 97% 4.3 mph N6.9 kmh N 6.9 mph11.1 kmh 31.04 in1051.1 mb 0.00 in0.0 mm 0.00 in0.0 mm 0.00 in0.0 mm
12:45 AM 54.1°F12.3°C 53.3°F11.8°C 97% 4.6 mph N7.4 kmh N 6.9 mph11.1 kmh 31.05 in1051.5 mb 0.00 in0.0 mm 0.00 in0.0 mm 0.00 in0.0 mm
12:30 AM 54.1°F12.3°C 53.0°F11.7°C 96% 4.8 mph N7.7 kmh N 7.6 mph12.2 kmh 31.05 in1051.5 mb 0.00 in0.0 mm 0.00 in0.0 mm 0.00 in0.0 mm
12:15 AM 54.0°F12.2°C 52.9°F11.6°C 96% 4.0 mph NNE6.4 kmh NNE 6.0 mph9.7 kmh 31.06 in1051.8 mb 0.00 in0.0 mm 0.00 in0.0 mm 0.00 in0.0 mm
12:01 AM 53.8°F12.1°C 52.4°F11.3°C 95% 5.0 mph N8.0 kmh N 8.3 mph13.4 kmh 31.07 in1052.2 mb 0.00 in0.0 mm 0.00 in0.0 mm 0.00 in0.0 mm
12:00 AM 53.6°F12.0°C 52.2°F11.2°C 95% 4.7 mph N7.6 kmh N 8.3 mph13.4 kmh 31.07 in1052.2 mb 0.00 in0.0 mm 0.00 in0.0 mm 0.00 in0.0 mm